createdAt,value
2019-06-10T00:00:55.292Z,18.96
2019-06-10T00:03:26.382Z,18.99
2019-06-10T00:05:57.685Z,18.87
2019-06-10T00:08:30.847Z,18.90
2019-06-10T00:11:04.226Z,18.92
2019-06-10T00:13:34.308Z,18.86
2019-06-10T00:16:06.698Z,18.88
2019-06-10T00:18:42.039Z,18.80
2019-06-10T00:21:11.295Z,18.78
2019-06-10T00:23:43.422Z,18.81
2019-06-10T00:26:14.462Z,18.78
2019-06-10T00:28:45.518Z,18.71
2019-06-10T00:31:17.002Z,18.82
2019-06-10T00:33:48.009Z,18.84
2019-06-10T00:36:21.386Z,18.64
2019-06-10T00:38:51.967Z,18.69
2019-06-10T00:41:23.708Z,18.71
2019-06-10T00:43:54.807Z,18.72
2019-06-10T00:46:25.815Z,18.74
2019-06-10T00:48:56.912Z,18.73
2019-06-10T00:51:27.912Z,18.76
2019-06-10T00:54:02.020Z,18.73
2019-06-10T00:56:31.825Z,18.69
2019-06-10T00:59:04.091Z,18.68
2019-06-10T01:01:35.243Z,18.71
2019-06-10T01:04:06.910Z,18.67
2019-06-10T01:06:38.428Z,18.73
2019-06-10T01:09:12.753Z,18.72
2019-06-10T01:11:42.597Z,18.68
2019-06-10T01:14:15.138Z,18.68
2019-06-10T01:16:46.502Z,18.70
2019-06-10T01:19:17.516Z,18.66
2019-06-10T01:21:50.988Z,18.62
2019-06-10T01:24:22.419Z,18.65
2019-06-10T01:26:53.595Z,18.64
2019-06-10T01:29:24.612Z,18.62
2019-06-10T01:31:55.615Z,18.65
2019-06-10T01:34:26.648Z,18.58
2019-06-10T01:36:57.667Z,18.57
2019-06-10T01:39:30.877Z,18.54
2019-06-10T01:42:01.587Z,18.52
2019-06-10T01:44:32.932Z,18.52
2019-06-10T01:47:03.966Z,18.55
2019-06-10T01:49:35.260Z,18.64
2019-06-10T01:52:07.246Z,18.63
2019-06-10T01:54:38.246Z,18.58
2019-06-10T01:57:11.981Z,18.58
2019-06-10T01:59:42.119Z,18.56
2019-06-10T02:02:19.373Z,18.55
2019-06-10T02:04:51.747Z,18.57
2019-06-10T02:07:24.461Z,18.54
2019-06-10T02:09:55.453Z,18.56
2019-06-10T02:12:26.457Z,18.44
2019-06-10T02:14:57.524Z,18.50
2019-06-10T02:17:31.045Z,18.49
2019-06-10T02:20:01.304Z,18.48
2019-06-10T02:22:32.316Z,18.52
2019-06-10T02:25:03.471Z,18.57
2019-06-10T02:27:34.493Z,18.59
2019-06-10T02:30:14.900Z,18.51
2019-06-10T02:32:42.599Z,18.51
2019-06-10T02:35:18.137Z,18.53
2019-06-10T02:37:45.650Z,18.48
2019-06-10T02:40:22.630Z,18.42
2019-06-10T02:42:53.962Z,18.46
2019-06-10T02:45:32.712Z,18.42
2019-06-10T02:47:57.600Z,18.45
2019-06-10T02:50:59.978Z,18.44
2019-06-10T02:53:35.877Z,18.45
2019-06-10T02:56:06.707Z,18.39
2019-06-10T02:58:39.734Z,18.38
2019-06-10T03:01:14.844Z,18.28
2019-06-10T03:03:49.436Z,18.33
2019-06-10T03:06:19.832Z,18.37
2019-06-10T03:08:50.356Z,18.35
2019-06-10T03:11:27.328Z,18.46
2019-06-10T03:13:54.082Z,18.49
2019-06-10T03:16:44.010Z,18.43
2019-06-10T03:19:15.847Z,18.38
2019-06-10T03:21:46.903Z,18.45
2019-06-10T03:24:19.095Z,18.39
2019-06-10T03:26:52.181Z,18.41
2019-06-10T03:29:26.481Z,18.36
2019-06-10T03:31:56.952Z,18.42
2019-06-10T03:34:36.304Z,18.44
2019-06-10T03:37:02.485Z,18.38
2019-06-10T03:39:33.364Z,18.37
2019-06-10T03:42:04.494Z,18.33
2019-06-10T03:44:35.599Z,18.30
2019-06-10T03:47:06.633Z,18.29
2019-06-10T03:49:49.882Z,18.27
2019-06-10T03:52:12.834Z,18.27
2019-06-10T03:54:43.482Z,18.34
2019-06-10T03:57:14.541Z,18.24
2019-06-10T03:59:45.547Z,18.23
2019-06-10T04:02:17.509Z,18.31
2019-06-10T04:04:48.542Z,18.32
2019-06-10T04:07:20.902Z,18.26
2019-06-10T04:09:52.665Z,18.19
2019-06-10T04:12:24.723Z,18.20
2019-06-10T04:14:56.798Z,18.19
2019-06-10T04:17:28.707Z,18.16
2019-06-10T04:20:09.421Z,18.23
2019-06-10T04:22:33.591Z,18.29
2019-06-10T04:25:05.181Z,18.26
2019-06-10T04:27:36.248Z,18.26
2019-06-10T04:30:08.032Z,18.22
2019-06-10T04:32:39.106Z,18.17
2019-06-10T04:35:12.523Z,18.14
2019-06-10T04:37:44.133Z,18.18
2019-06-10T04:40:15.416Z,18.18
2019-06-10T04:42:46.451Z,18.20
2019-06-10T04:45:18.671Z,18.21
2019-06-10T04:47:49.810Z,18.20
2019-06-10T04:50:32.616Z,18.25
2019-06-10T04:52:54.843Z,18.29
2019-06-10T04:55:26.523Z,18.20
2019-06-10T04:57:58.932Z,18.22
2019-06-10T05:00:30.981Z,18.26
2019-06-10T05:03:03.056Z,18.28
2019-06-10T05:05:34.230Z,18.32
2019-06-10T05:08:05.299Z,18.26
2019-06-10T05:10:36.330Z,18.30
2019-06-10T05:13:07.396Z,18.32
2019-06-10T05:15:38.477Z,18.33
2019-06-10T05:18:09.477Z,18.33
2019-06-10T05:20:51.991Z,18.37
2019-06-10T05:23:13.314Z,18.41
2019-06-10T05:25:44.306Z,18.44
2019-06-10T05:28:16.060Z,18.40
2019-06-10T05:30:47.067Z,18.37
2019-06-10T05:33:18.178Z,18.44
2019-06-10T05:35:52.844Z,18.45
2019-06-10T05:38:25.887Z,18.49
2019-06-10T05:40:57.077Z,18.47
2019-06-10T05:43:28.151Z,18.50
2019-06-10T05:45:59.243Z,18.55
2019-06-10T05:48:33.045Z,18.60
2019-06-10T05:51:06.713Z,18.63
2019-06-10T05:53:35.989Z,18.68
2019-06-10T05:56:07.461Z,18.69
2019-06-10T05:58:38.450Z,18.75
2019-06-10T06:01:09.520Z,18.75
2019-06-10T06:03:40.548Z,18.73
2019-06-10T06:06:12.533Z,18.74
2019-06-10T06:08:43.757Z,18.73
2019-06-10T06:11:14.915Z,18.74
2019-06-10T06:13:45.914Z,18.76
2019-06-10T06:16:18.082Z,18.73
2019-06-10T06:18:49.168Z,18.78
2019-06-10T06:21:26.596Z,18.72
2019-06-10T06:23:53.049Z,18.73
2019-06-10T06:26:26.228Z,18.77
2019-06-10T06:28:57.145Z,18.77
2019-06-10T06:31:28.217Z,18.84
2019-06-10T06:33:59.547Z,18.90
2019-06-10T06:36:31.276Z,18.94
2019-06-10T06:39:05.149Z,19.00
2019-06-10T06:41:37.595Z,19.02
2019-06-10T06:44:09.054Z,18.99
2019-06-10T06:46:42.656Z,18.97
2019-06-10T06:49:13.106Z,19.04
2019-06-10T06:51:54.740Z,19.05
2019-06-10T06:54:18.118Z,19.11
2019-06-10T06:56:49.129Z,19.01
2019-06-10T06:59:22.280Z,19.09
2019-06-10T07:01:52.946Z,19.15
2019-06-10T07:04:24.553Z,19.15
2019-06-10T07:06:56.568Z,19.19
2019-06-10T07:09:28.497Z,19.28
2019-06-10T07:12:02.531Z,19.30
2019-06-10T07:14:37.306Z,19.35
2019-06-10T07:17:07.790Z,19.38
2019-06-10T07:19:42.110Z,19.42
2019-06-10T07:22:16.003Z,19.46
2019-06-10T07:24:47.402Z,19.49
2019-06-10T07:27:19.172Z,19.57
2019-06-10T07:29:52.764Z,19.66
2019-06-10T07:32:22.994Z,19.68
2019-06-10T07:34:54.553Z,19.63
2019-06-10T07:37:25.870Z,19.72
2019-06-10T07:39:56.876Z,19.76
2019-06-10T07:42:27.866Z,19.79
2019-06-10T07:44:58.872Z,19.80
2019-06-10T07:47:32.236Z,19.89
2019-06-10T07:50:03.122Z,19.93
2019-06-10T07:52:34.728Z,19.91
2019-06-10T07:55:07.361Z,19.96
2019-06-10T07:57:39.345Z,19.96
2019-06-10T08:00:12.249Z,19.95
2019-06-10T08:02:45.910Z,20.00
2019-06-10T08:05:16.613Z,20.00
2019-06-10T08:07:48.993Z,20.04
2019-06-10T08:10:20.213Z,20.03
2019-06-10T08:12:52.446Z,20.05
2019-06-10T08:15:24.716Z,20.02
2019-06-10T08:18:15.062Z,20.03
2019-06-10T08:20:47.706Z,20.02
2019-06-10T08:23:23.353Z,20.02
2019-06-10T08:25:57.714Z,20.05
2019-06-10T08:28:27.992Z,20.09
2019-06-10T08:30:58.994Z,20.07
2019-06-10T08:33:29.983Z,20.06
2019-06-10T08:36:03.872Z,20.09
2019-06-10T08:38:34.020Z,20.08
2019-06-10T08:41:05.185Z,20.09
2019-06-10T08:43:36.473Z,20.12
2019-06-10T08:46:08.641Z,20.15
2019-06-10T08:48:39.713Z,20.13
2019-06-10T08:51:12.489Z,20.11
2019-06-10T08:53:46.586Z,20.15
2019-06-10T08:56:16.425Z,20.10
2019-06-10T08:58:49.667Z,20.14
2019-06-10T09:01:22.302Z,20.15
2019-06-10T09:03:53.781Z,20.17
2019-06-10T09:06:25.052Z,20.15
2019-06-10T09:08:56.056Z,20.17
2019-06-10T09:11:27.060Z,20.19
2019-06-10T09:13:58.139Z,20.18
2019-06-10T09:16:29.149Z,20.17
2019-06-10T09:19:02.301Z,20.19
2019-06-10T09:21:33.198Z,20.18
2019-06-10T09:24:04.389Z,20.17
2019-06-10T09:26:35.469Z,20.14
2019-06-10T09:29:06.553Z,20.22
2019-06-10T09:31:37.678Z,20.26
2019-06-10T09:34:08.641Z,20.14
2019-06-10T09:36:40.883Z,20.15
2019-06-10T09:39:13.123Z,20.33
2019-06-10T09:41:52.273Z,20.27
2019-06-10T09:44:18.432Z,20.51
2019-06-10T09:46:56.021Z,20.52
2019-06-10T09:49:26.294Z,20.64
2019-06-10T09:51:57.805Z,20.58
2019-06-10T09:54:29.074Z,20.58
2019-06-10T09:57:02.419Z,20.68
2019-06-10T09:59:32.849Z,20.71
2019-06-10T10:02:07.069Z,20.72
2019-06-10T10:04:38.905Z,20.76
2019-06-10T10:07:12.126Z,20.78
2019-06-10T10:09:46.988Z,20.80
2019-06-10T10:12:16.693Z,20.83
2019-06-10T10:14:49.655Z,20.85
2019-06-10T10:17:23.008Z,20.99
2019-06-10T10:19:56.703Z,21.06
2019-06-10T10:22:26.053Z,21.15
2019-06-10T10:24:57.444Z,21.28
2019-06-10T10:27:28.442Z,21.39
2019-06-10T10:29:59.456Z,21.44
2019-06-10T10:32:33.247Z,21.49
2019-06-10T10:35:04.087Z,21.56
2019-06-10T10:37:35.040Z,21.64
2019-06-10T10:40:06.864Z,21.64
2019-06-10T10:42:44.865Z,21.68
2019-06-10T10:45:13.321Z,21.73
2019-06-10T10:47:44.969Z,21.75
2019-06-10T10:50:17.211Z,21.79
2019-06-10T10:52:49.842Z,21.84
2019-06-10T10:55:22.312Z,21.76
2019-06-10T10:57:55.766Z,21.81
2019-06-10T11:00:30.522Z,21.86
2019-06-10T11:03:02.922Z,22.05
2019-06-10T11:05:36.102Z,21.93
2019-06-10T11:08:09.037Z,22.05
2019-06-10T11:10:40.297Z,22.03
2019-06-10T11:13:12.118Z,22.00
2019-06-10T11:15:43.566Z,22.01
2019-06-10T11:18:15.097Z,21.94
2019-06-10T11:20:47.171Z,21.88
2019-06-10T11:23:18.827Z,21.78
2019-06-10T11:25:52.866Z,21.76
2019-06-10T11:28:22.899Z,21.72
2019-06-10T11:30:56.942Z,21.65
2019-06-10T11:33:28.052Z,21.66
2019-06-10T11:35:59.365Z,21.66
2019-06-10T11:38:32.845Z,21.68
2019-06-10T11:41:03.385Z,21.72
2019-06-10T11:43:34.553Z,21.73
2019-06-10T11:46:07.670Z,21.74
2019-06-10T11:48:38.948Z,21.77
2019-06-10T11:51:12.713Z,21.82
2019-06-10T11:53:44.047Z,21.79
2019-06-10T11:56:16.329Z,21.79
2019-06-10T11:58:47.894Z,21.83
2019-06-10T12:01:19.009Z,21.78
2019-06-10T12:03:51.097Z,21.81
2019-06-10T12:06:23.061Z,21.81
2019-06-10T12:08:58.410Z,21.80
2019-06-10T12:11:28.194Z,21.75
2019-06-10T12:14:04.186Z,21.76
2019-06-10T12:17:15.727Z,21.75
2019-06-10T12:19:04.810Z,21.74
2019-06-10T12:21:35.879Z,21.79
2019-06-10T12:24:06.995Z,21.76
2019-06-10T12:26:37.995Z,21.71
2019-06-10T12:29:09.132Z,21.78
2019-06-10T12:31:42.836Z,21.82
2019-06-10T12:34:13.298Z,21.76
2019-06-10T12:36:44.348Z,21.77
2019-06-10T12:39:17.440Z,21.88
2019-06-10T12:41:48.474Z,21.84
2019-06-10T12:44:19.570Z,21.83
2019-06-10T12:46:54.027Z,21.79
2019-06-10T12:49:23.315Z,21.77
2019-06-10T12:51:56.388Z,21.78
2019-06-10T12:54:28.416Z,21.73
2019-06-10T12:57:00.457Z,21.71
2019-06-10T12:59:32.436Z,21.72
2019-06-10T13:02:15.369Z,21.69
2019-06-10T13:04:36.892Z,21.66
2019-06-10T13:07:08.943Z,21.65
2019-06-10T13:09:43.783Z,21.62
2019-06-10T13:12:15.094Z,21.56
2019-06-10T13:14:46.108Z,21.49
2019-06-10T13:17:17.196Z,21.46
2019-06-10T13:19:48.386Z,21.44
2019-06-10T13:22:19.375Z,21.38
2019-06-10T13:24:52.919Z,21.33
2019-06-10T13:27:23.459Z,21.30
2019-06-10T13:29:56.316Z,21.26
2019-06-10T13:32:28.445Z,21.24
2019-06-10T13:35:00.566Z,21.16
2019-06-10T13:37:32.145Z,21.15
2019-06-10T13:40:06.192Z,21.08
2019-06-10T13:42:36.860Z,21.01
2019-06-10T13:45:09.882Z,20.85
2019-06-10T13:47:42.981Z,20.91
2019-06-10T13:50:19.347Z,20.91
2019-06-10T13:52:52.048Z,20.86
2019-06-10T13:55:22.772Z,20.80
2019-06-10T13:57:53.766Z,20.77
2019-06-10T14:00:40.627Z,20.66
2019-06-10T14:02:59.933Z,20.67
2019-06-10T14:05:34.452Z,20.67
2019-06-10T14:08:07.075Z,20.66
2019-06-10T14:10:36.726Z,20.59
2019-06-10T14:13:09.531Z,20.59
2019-06-10T14:15:42.693Z,20.65
2019-06-10T14:18:15.250Z,20.60
2019-06-10T14:20:46.342Z,20.60
2019-06-10T14:23:17.775Z,20.60
2019-06-10T14:25:49.017Z,20.58
2019-06-10T14:28:38.533Z,20.55
2019-06-10T14:30:53.814Z,20.64
2019-06-10T14:33:28.886Z,20.58
2019-06-10T14:35:59.879Z,20.55
2019-06-10T14:38:32.739Z,20.45
2019-06-10T14:41:05.015Z,20.47
2019-06-10T14:43:36.412Z,20.38
2019-06-10T14:46:09.099Z,20.33
2019-06-10T14:48:42.523Z,20.32
2019-06-10T14:51:15.793Z,20.28
2019-06-10T14:53:46.188Z,20.26
2019-06-10T14:56:19.703Z,20.22
2019-06-10T14:58:52.803Z,20.24
2019-06-10T15:01:25.615Z,20.21
2019-06-10T15:03:55.945Z,20.27
2019-06-10T15:06:26.986Z,20.23
2019-06-10T15:08:57.989Z,20.24
2019-06-10T15:11:29.011Z,20.26
2019-06-10T15:14:02.679Z,20.28
2019-06-10T15:16:33.714Z,20.29
2019-06-10T15:19:14.650Z,20.27
2019-06-10T15:21:37.454Z,20.30
2019-06-10T15:24:09.793Z,20.32
2019-06-10T15:26:42.278Z,20.32
2019-06-10T15:29:15.371Z,20.33
2019-06-10T15:31:46.163Z,20.32
2019-06-10T15:34:19.608Z,20.33
2019-06-10T15:36:52.578Z,20.29
2019-06-10T15:39:24.219Z,20.26
2019-06-10T15:41:55.465Z,20.19
2019-06-10T15:44:47.497Z,20.18
2019-06-10T15:46:59.674Z,20.11
2019-06-10T15:49:32.774Z,20.13
2019-06-10T15:52:03.484Z,20.09
2019-06-10T15:54:34.504Z,20.09
2019-06-10T15:57:05.584Z,20.09
2019-06-10T15:59:36.663Z,20.10
2019-06-10T16:02:08.265Z,20.12
2019-06-10T16:04:39.271Z,20.17
2019-06-10T16:07:13.092Z,20.17
2019-06-10T16:09:43.093Z,20.16
2019-06-10T16:12:16.095Z,20.17
2019-06-10T16:14:46.984Z,20.10
2019-06-10T16:17:19.172Z,20.09
2019-06-10T16:19:52.813Z,20.11
2019-06-10T16:22:24.884Z,20.06
2019-06-10T16:24:57.190Z,20.00
2019-06-10T16:27:43.653Z,20.04
2019-06-10T16:30:02.829Z,20.03
2019-06-10T16:32:35.135Z,20.00
2019-06-10T16:35:06.810Z,20.05
2019-06-10T16:37:38.912Z,20.04
2019-06-10T16:40:12.287Z,20.07
2019-06-10T16:42:43.354Z,20.11
2019-06-10T16:45:15.804Z,20.05
2019-06-10T16:47:47.630Z,20.04
2019-06-10T16:50:19.910Z,20.01
2019-06-10T16:52:53.402Z,20.01
2019-06-10T16:55:25.398Z,19.99
2019-06-10T16:57:59.651Z,20.03
2019-06-10T17:00:31.490Z,20.08
2019-06-10T17:03:02.844Z,20.08
2019-06-10T17:05:34.024Z,20.06
2019-06-10T17:08:06.076Z,20.08
2019-06-10T17:10:37.089Z,20.09
2019-06-10T17:13:09.973Z,20.04
2019-06-10T17:15:42.353Z,20.03
2019-06-10T17:18:13.603Z,20.04
2019-06-10T17:20:44.771Z,20.06
2019-06-10T17:23:26.431Z,20.05
2019-06-10T17:25:57.110Z,20.03
2019-06-10T17:28:32.884Z,19.99
2019-06-10T17:31:03.718Z,19.97
2019-06-10T17:33:35.613Z,19.97
2019-06-10T17:36:07.164Z,19.90
2019-06-10T17:38:38.185Z,19.92
2019-06-10T17:41:09.196Z,19.91
2019-06-10T17:43:42.761Z,19.96
2019-06-10T17:46:16.961Z,19.97
2019-06-10T17:48:48.035Z,19.91
2019-06-10T17:51:22.351Z,19.82
2019-06-10T17:53:53.142Z,19.87
2019-06-10T17:56:26.255Z,19.87
2019-06-10T17:58:58.245Z,19.84
2019-06-10T18:01:29.380Z,19.88
2019-06-10T18:04:02.526Z,19.86
2019-06-10T18:06:36.085Z,19.87
2019-06-10T18:09:07.280Z,19.86
2019-06-10T18:11:38.337Z,19.71
2019-06-10T18:14:09.441Z,19.73
2019-06-10T18:16:42.544Z,19.72
2019-06-10T18:19:13.205Z,19.72
2019-06-10T18:21:44.202Z,19.73
2019-06-10T18:24:15.214Z,19.71
2019-06-10T18:26:46.210Z,19.70
2019-06-10T18:29:17.756Z,19.74
2019-06-10T18:31:48.936Z,19.71
2019-06-10T18:34:22.538Z,19.71
2019-06-10T18:36:53.468Z,19.72
2019-06-10T18:39:24.496Z,19.70
2019-06-10T18:41:55.500Z,19.65
2019-06-10T18:44:28.181Z,19.62
2019-06-10T18:46:59.145Z,19.68
2019-06-10T18:49:30.149Z,19.67
2019-06-10T18:52:01.192Z,19.64
2019-06-10T18:54:34.436Z,19.59
2019-06-10T18:57:06.132Z,19.61
2019-06-10T18:59:38.341Z,19.63
2019-06-10T19:02:12.234Z,19.60
2019-06-10T19:04:43.639Z,19.59
2019-06-10T19:07:15.176Z,19.57
2019-06-10T19:09:47.975Z,19.57
2019-06-10T19:12:22.322Z,19.59
2019-06-10T19:14:53.124Z,19.58
2019-06-10T19:17:24.247Z,19.56
2019-06-10T19:19:55.338Z,19.53
2019-06-10T19:22:27.685Z,19.51
2019-06-10T19:24:58.798Z,19.53
2019-06-10T19:27:31.279Z,19.51
2019-06-10T19:30:02.596Z,19.49
2019-06-10T19:32:35.555Z,19.46
2019-06-10T19:35:07.580Z,19.44
2019-06-10T19:37:39.365Z,19.48
2019-06-10T19:40:12.460Z,19.44
2019-06-10T19:42:44.780Z,19.44
2019-06-10T19:45:17.406Z,19.48
2019-06-10T19:47:48.474Z,19.45
2019-06-10T19:50:20.531Z,19.46
2019-06-10T19:52:52.092Z,19.51
2019-06-10T19:55:23.419Z,19.48
2019-06-10T19:57:54.590Z,19.44
2019-06-10T20:00:26.295Z,19.44
2019-06-10T20:02:57.837Z,19.43
2019-06-10T20:05:29.257Z,19.45
2019-06-10T20:08:02.805Z,19.45
2019-06-10T20:10:34.056Z,19.42
2019-06-10T20:13:05.489Z,19.47
2019-06-10T20:15:37.416Z,19.40
2019-06-10T20:18:08.700Z,19.36
2019-06-10T20:20:40.102Z,19.39
2019-06-10T20:23:11.229Z,19.41
2019-06-10T20:25:44.302Z,19.39
2019-06-10T20:28:15.409Z,19.44
2019-06-10T20:30:49.022Z,19.41
2019-06-10T20:33:36.288Z,19.38
2019-06-10T20:36:07.567Z,19.46
2019-06-10T20:38:38.482Z,19.39
2019-06-10T20:41:12.666Z,19.37
2019-06-10T20:43:44.375Z,19.38
2019-06-10T20:46:16.465Z,19.40
2019-06-10T20:48:49.777Z,19.35
2019-06-10T20:51:22.654Z,19.37
2019-06-10T20:53:53.442Z,19.35
2019-06-10T20:56:24.510Z,19.37
2019-06-10T20:58:55.687Z,19.36
2019-06-10T21:01:27.932Z,19.34
2019-06-10T21:03:59.007Z,19.41
2019-06-10T21:06:32.695Z,19.38
2019-06-10T21:09:05.986Z,19.29
2019-06-10T21:11:39.865Z,19.24
2019-06-10T21:14:12.307Z,19.19
2019-06-10T21:16:44.341Z,19.14
2019-06-10T21:19:15.491Z,19.12
2019-06-10T21:21:48.678Z,19.18
2019-06-10T21:24:23.066Z,19.15
2019-06-10T21:26:54.820Z,19.12
2019-06-10T21:29:28.074Z,19.10
2019-06-10T21:31:59.083Z,19.09
2019-06-10T21:34:32.591Z,19.11
2019-06-10T21:37:03.251Z,19.05
2019-06-10T21:39:34.416Z,19.08
2019-06-10T21:42:05.499Z,19.14
2019-06-10T21:44:36.568Z,19.08
2019-06-10T21:47:07.584Z,19.08
2019-06-10T21:49:38.654Z,19.09
2019-06-10T21:52:09.664Z,19.03
2019-06-10T21:54:42.583Z,19.06
2019-06-10T21:57:13.383Z,19.05
2019-06-10T21:59:45.557Z,18.98
2019-06-10T22:02:16.998Z,19.02
2019-06-10T22:04:49.364Z,19.05
2019-06-10T22:07:22.478Z,19.00
2019-06-10T22:09:55.838Z,18.98
2019-06-10T22:12:26.308Z,18.98
2019-06-10T22:14:58.097Z,18.95
2019-06-10T22:17:29.087Z,18.96
2019-06-10T22:20:01.061Z,18.93
2019-06-10T22:22:32.353Z,18.95
2019-06-10T22:25:03.488Z,18.91
2019-06-10T22:27:34.477Z,18.86
2019-06-10T22:30:11.222Z,18.85
2019-06-10T22:32:39.005Z,18.80
2019-06-10T22:35:12.258Z,18.81
2019-06-10T22:37:43.336Z,18.86
2019-06-10T22:40:14.524Z,18.86
2019-06-10T22:42:45.547Z,18.85
2019-06-10T22:45:16.944Z,18.84
2019-06-10T22:47:47.935Z,18.82
2019-06-10T22:50:19.210Z,18.76
2019-06-10T22:52:51.908Z,18.66
2019-06-10T22:55:22.939Z,18.66
2019-06-10T22:57:57.307Z,18.74
2019-06-10T23:00:28.369Z,18.65
2019-06-10T23:02:59.431Z,18.72
2019-06-10T23:05:33.111Z,18.71
2019-06-10T23:08:04.246Z,18.72
2019-06-10T23:10:35.350Z,18.63
2019-06-10T23:13:06.447Z,18.64
2019-06-10T23:15:37.457Z,18.65
2019-06-10T23:18:08.543Z,18.67
2019-06-10T23:20:39.568Z,18.55
2019-06-10T23:23:12.637Z,18.47
2019-06-10T23:25:43.436Z,18.49
2019-06-10T23:28:14.432Z,18.42
2019-06-10T23:30:45.943Z,18.45
2019-06-10T23:33:16.957Z,18.50
2019-06-10T23:35:48.104Z,18.46
2019-06-10T23:38:19.118Z,18.38
2019-06-10T23:40:50.640Z,18.36
2019-06-10T23:43:22.480Z,18.36
2019-06-10T23:45:55.108Z,18.42
2019-06-10T23:48:26.460Z,18.33
2019-06-10T23:50:59.225Z,18.43
2019-06-10T23:53:32.844Z,18.37
2019-06-10T23:56:05.022Z,18.31
2019-06-10T23:58:36.316Z,18.36
